Time;durP1;ratioP1;P1;durP2;ratioP2;P2;SDS_P1;SDS_P2;PMS_P1;PMS_P2;Temp;Humidity;BMP_temperature;BMP_pressure;BME280_temperature;BME280_humidity;BME280_pressure;Samples;Min_cycle;Max_cycle;Signal;HPM_P1;HPM_P2
2021/12/26 00:00:24;;;;;;;5.10;2.55;;;;;;;-0.58;59.20;100771.41;5011630;28;20042;-45
2021/12/26 00:02:51;;;;;;;4.50;2.55;;;;;;;-0.59;59.43;100774.31;5012796;28;20125;-48
2021/12/26 00:05:21;;;;;;;5.35;2.90;;;;;;;-0.74;59.05;100772.56;5008291;28;20038;-47
2021/12/26 00:07:50;;;;;;;7.00;2.95;;;;;;;-0.79;59.29;100779.53;4993365;28;20054;-50
2021/12/26 00:10:23;;;;;;;4.72;2.80;;;;;;;-0.81;58.43;100777.03;4993095;28;20096;-50
2021/12/26 00:12:52;;;;;;;4.28;2.60;;;;;;;-0.92;59.80;100774.88;4993065;28;20053;-49
2021/12/26 00:15:19;;;;;;;4.97;2.90;;;;;;;-0.87;59.95;100772.44;5006221;28;20528;-48
2021/12/26 00:17:47;;;;;;;6.53;3.00;;;;;;;-0.82;58.77;100774.53;4993138;28;20428;-50
2021/12/26 00:20:15;;;;;;;4.88;2.88;;;;;;;-0.86;59.26;100769.59;4994848;28;20045;-47
2021/12/26 00:22:45;;;;;;;5.78;2.85;;;;;;;-0.84;59.20;100769.41;4997363;28;20052;-48
2021/12/26 00:25:14;;;;;;;5.55;3.38;;;;;;;-0.94;59.53;100777.78;4997911;28;20485;-47
2021/12/26 00:27:42;;;;;;;5.78;3.03;;;;;;;-0.88;60.06;100774.31;4997128;28;20046;-47
2021/12/26 00:30:13;;;;;;;4.88;2.70;;;;;;;-0.81;60.07;100766.34;4996907;28;20238;-47
2021/12/26 00:32:41;;;;;;;6.28;2.90;;;;;;;-0.77;59.63;100764.09;4997156;28;20456;-48
2021/12/26 00:35:10;;;;;;;4.85;3.17;;;;;;;-0.74;59.56;100758.38;4997784;28;20045;-50
2021/12/26 00:37:37;;;;;;;5.53;2.97;;;;;;;-0.74;59.34;100763.72;5012112;28;20043;-53
2021/12/26 00:40:07;;;;;;;12.95;7.85;;;;;;;-0.80;59.31;100754.59;5002402;28;20034;-48
2021/12/26 00:42:35;;;;;;;8.40;3.60;;;;;;;-0.75;60.03;100751.34;5015403;28;20049;-48
2021/12/26 00:45:04;;;;;;;5.80;2.75;;;;;;;-0.67;59.67;100753.88;5004955;28;20046;-48
2021/12/26 00:47:33;;;;;;;4.38;2.78;;;;;;;-0.58;59.00;100750.00;5016255;28;20042;-48
2021/12/26 00:50:02;;;;;;;4.95;2.85;;;;;;;-0.61;58.38;100750.41;4982995;28;20050;-48
2021/12/26 00:52:30;;;;;;;3.70;2.53;;;;;;;-0.67;58.92;100748.53;5014888;28;20042;-47
2021/12/26 00:54:59;;;;;;;4.20;2.75;;;;;;;-0.66;59.63;100745.66;4996601;28;20073;-48
2021/12/26 00:57:26;;;;;;;7.55;3.58;;;;;;;-0.65;59.02;100743.78;4995142;28;20129;-47
2021/12/26 00:59:54;;;;;;;8.60;4.40;;;;;;;-0.65;58.99;100739.28;5017079;28;20050;-48
2021/12/26 01:02:22;;;;;;;5.40;3.25;;;;;;;-0.61;59.00;100739.72;5014645;28;20080;-47
2021/12/26 01:04:51;;;;;;;4.13;2.90;;;;;;;-0.68;59.14;100746.88;5004200;28;20122;-48
2021/12/26 01:07:41;;;;;;;5.40;2.90;;;;;;;-0.63;59.24;100749.78;4994850;28;20540;-48
2021/12/26 01:10:07;;;;;;;5.88;3.03;;;;;;;-0.64;59.08;100753.50;4995871;28;20046;-47
2021/12/26 01:12:36;;;;;;;6.78;3.17;;;;;;;-0.58;59.11;100757.22;5011841;28;20141;-48
2021/12/26 01:15:08;;;;;;;5.90;2.95;;;;;;;-0.62;58.73;100754.13;4997367;28;20053;-45
2021/12/26 01:17:43;;;;;;;7.68;3.47;;;;;;;-0.62;59.52;100754.13;5014441;28;20052;-48
2021/12/26 01:20:28;;;;;;;5.43;2.85;;;;;;;-0.62;59.74;100764.81;5014143;28;20145;-50
2021/12/26 01:22:57;;;;;;;5.63;2.90;;;;;;;-0.62;59.01;100762.16;5014259;28;20416;-49
2021/12/26 01:25:25;;;;;;;6.95;3.22;;;;;;;-0.60;59.90;100757.44;5013736;28;20121;-52
2021/12/26 01:27:53;;;;;;;5.15;2.90;;;;;;;-0.58;59.03;100759.88;5014394;28;20038;-49
2021/12/26 01:30:20;;;;;;;4.38;2.63;;;;;;;-0.63;59.90;100763.16;5013406;28;20045;-48
2021/12/26 01:32:52;;;;;;;5.80;3.00;;;;;;;-0.70;60.15;100770.31;5015297;28;20496;-49
2021/12/26 01:35:27;;;;;;;8.88;3.75;;;;;;;-0.76;60.10;100758.53;5014410;28;20057;-49
2021/12/26 01:38:30;;;;;;;5.38;2.97;;;;;;;-0.71;59.47;100755.28;5032899;28;20056;-48
2021/12/26 01:41:10;;;;;;;6.18;2.75;;;;;;;-0.84;59.75;100757.84;5012891;28;20068;-47
2021/12/26 01:43:58;;;;;;;6.40;2.63;;;;;;;-0.94;60.61;100761.72;5003178;28;20132;-46
2021/12/26 01:46:38;;;;;;;4.25;2.63;;;;;;;-0.96;61.41;100760.22;5001432;28;20048;-49
2021/12/26 01:49:10;;;;;;;3.70;2.63;;;;;;;-0.85;61.52;100757.03;5016357;28;20092;-49
2021/12/26 01:51:40;;;;;;;4.13;2.70;;;;;;;-0.74;60.72;100750.34;5016222;28;20057;-50
2021/12/26 01:54:10;;;;;;;5.47;3.10;;;;;;;-0.69;59.33;100758.59;5030710;28;20425;-49
2021/12/26 01:56:39;;;;;;;6.13;3.03;;;;;;;-0.80;59.75;100751.94;5016276;28;20140;-50
2021/12/26 01:59:09;;;;;;;6.25;3.10;;;;;;;-0.91;60.12;100744.47;5029630;28;20179;-48
2021/12/26 02:01:43;;;;;;;5.13;2.88;;;;;;;-0.95;61.50;100749.34;5016091;28;20565;-52
2021/12/26 02:04:13;;;;;;;5.47;2.83;;;;;;;-0.92;60.63;100748.94;5015567;28;20050;-48
2021/12/26 02:06:41;;;;;;;4.18;2.90;;;;;;;-1.06;60.54;100747.19;5012197;28;20536;-49
2021/12/26 02:09:12;;;;;;;7.22;3.08;;;;;;;-1.10;60.45;100749.44;4964078;28;20090;-50
2021/12/26 02:11:41;;;;;;;5.05;2.85;;;;;;;-1.07;61.10;100742.88;4993649;28;20499;-48
2021/12/26 02:14:10;;;;;;;6.00;2.97;;;;;;;-1.08;60.25;100734.03;4978088;28;20046;-48
2021/12/26 02:16:57;;;;;;;4.63;3.03;;;;;;;-1.14;60.68;100733.97;4996095;28;20409;-48
2021/12/26 02:19:26;;;;;;;4.15;2.83;;;;;;;-1.06;61.11;100725.81;5009819;28;20050;-50
2021/12/26 02:22:10;;;;;;;6.72;2.90;;;;;;;-0.89;60.97;100724.53;5010190;28;20121;-48
2021/12/26 02:27:33;;;;;;;6.72;3.17;;;;;;;-0.95;60.07;100721.78;5013348;28;20046;-47
2021/12/26 02:30:22;;;;;;;5.28;3.05;;;;;;;-0.98;59.89;100725.69;5013018;28;20168;-48
2021/12/26 02:32:58;;;;;;;4.28;2.60;;;;;;;-1.03;60.56;100714.75;5013070;28;20073;-45
2021/12/26 02:35:26;;;;;;;4.63;3.05;;;;;;;-1.00;60.32;100722.38;5012875;28;20046;-46
2021/12/26 02:37:53;;;;;;;4.18;2.70;;;;;;;-0.95;59.83;100722.59;5013035;28;20100;-47
2021/12/26 02:40:21;;;;;;;4.55;2.72;;;;;;;-0.95;60.02;100722.59;5013926;28;20484;-48
2021/12/26 02:42:49;;;;;;;4.82;3.00;;;;;;;-0.97;59.94;100716.63;5013033;28;20038;-46
2021/12/26 02:45:17;;;;;;;5.47;2.97;;;;;;;-1.02;59.55;100719.06;5018593;28;20069;-44
2021/12/26 02:47:47;;;;;;;5.28;3.08;;;;;;;-1.09;60.10;100726.19;4994024;28;20053;-46
2021/12/26 02:50:17;;;;;;;5.30;2.90;;;;;;;-1.22;59.82;100726.13;5009724;28;20388;-48
2021/12/26 02:52:46;;;;;;;4.90;3.10;;;;;;;-1.18;60.12;100711.31;4976897;28;20504;-47
2021/12/26 02:55:15;;;;;;;5.60;3.25;;;;;;;-1.13;60.19;100715.09;5001262;28;20116;-48
2021/12/26 02:57:47;;;;;;;5.80;3.10;;;;;;;-1.09;60.60;100718.19;4993040;28;20077;-49
2021/12/26 03:00:16;;;;;;;5.00;2.83;;;;;;;-0.96;60.53;100720.13;5017384;28;20121;-48
2021/12/26 03:02:46;;;;;;;4.53;2.92;;;;;;;-0.90;60.40;100720.19;5012660;28;20045;-48
2021/12/26 03:05:15;;;;;;;4.22;2.80;;;;;;;-0.91;59.11;100723.06;4997668;28;20121;-49
2021/12/26 03:07:44;;;;;;;8.55;3.13;;;;;;;-1.05;60.26;100727.47;5010330;28;20070;-48
2021/12/26 03:10:21;;;;;;;5.35;3.00;;;;;;;-1.15;60.35;100716.31;5008987;28;20061;-50
2021/12/26 03:12:50;;;;;;;4.97;3.05;;;;;;;-1.20;61.00;100716.03;4993825;28;20049;-49
2021/12/26 03:15:18;;;;;;;6.95;3.00;;;;;;;-1.18;60.47;100719.34;5004844;28;20100;-50
2021/12/26 03:17:46;;;;;;;5.28;3.08;;;;;;;-1.13;59.97;100719.59;5012098;28;20042;-50
2021/12/26 03:20:18;;;;;;;3.65;2.60;;;;;;;-1.07;60.09;100726.84;5012439;28;20038;-49
2021/12/26 03:22:46;;;;;;;6.32;3.10;;;;;;;-1.19;59.63;100715.03;5013661;28;20129;-49
2021/12/26 03:25:17;;;;;;;6.90;3.25;;;;;;;-1.32;61.17;100715.75;5011659;28;20050;-49
2021/12/26 03:27:45;;;;;;;4.28;2.90;;;;;;;-1.21;60.48;100722.41;5008394;28;20050;-50
2021/12/26 03:30:15;;;;;;;6.25;3.15;;;;;;;-1.12;60.40;100721.25;4992530;28;20061;-51
2021/12/26 03:32:43;;;;;;;5.18;3.10;;;;;;;-1.12;60.71;100715.91;4992084;28;20088;-49
2021/12/26 03:35:11;;;;;;;4.85;2.92;;;;;;;-1.15;60.74;100716.31;5006047;28;20045;-50
2021/12/26 03:37:40;;;;;;;6.95;3.30;;;;;;;-1.15;59.91;100709.09;5011674;28;20038;-48
2021/12/26 03:40:27;;;;;;;4.60;2.95;;;;;;;-1.16;60.53;100698.59;5012890;28;20065;-49
2021/12/26 03:42:55;;;;;;;4.78;2.80;;;;;;;-1.21;60.38;100693.81;5012009;28;20141;-48
2021/12/26 03:45:41;;;;;;;6.75;2.92;;;;;;;-1.25;60.53;100697.06;5023277;28;20472;-48
2021/12/26 03:48:09;;;;;;;4.93;2.72;;;;;;;-1.30;61.05;100687.81;5006854;28;20065;-48
2021/12/26 03:50:40;;;;;;;6.20;3.10;;;;;;;-1.38;60.50;100682.59;4993596;28;20050;-48
2021/12/26 03:53:09;;;;;;;7.07;2.90;;;;;;;-1.35;61.57;100690.25;4992503;28;20505;-48
2021/12/26 03:55:38;;;;;;;4.70;2.80;;;;;;;-1.29;61.19;100686.78;4991585;28;20129;-46
2021/12/26 03:58:06;;;;;;;4.97;2.85;;;;;;;-1.31;61.32;100688.81;4994056;28;20047;-48
2021/12/26 04:00:35;;;;;;;6.28;2.92;;;;;;;-1.30;61.24;100697.66;4993662;28;20054;-48
2021/12/26 04:03:03;;;;;;;6.13;3.05;;;;;;;-1.32;60.68;100694.38;5008383;28;20498;-47
2021/12/26 04:05:40;;;;;;;4.72;2.83;;;;;;;-1.39;61.32;100693.50;4992330;28;20053;-48
2021/12/26 04:08:07;;;;;;;4.47;2.92;;;;;;;-1.36;61.43;100685.91;4992681;28;20468;-48
2021/12/26 04:10:35;;;;;;;5.22;2.85;;;;;;;-1.32;60.65;100692.53;5003640;28;20050;-50
2021/12/26 04:13:04;;;;;;;5.15;3.30;;;;;;;-1.33;60.88;100685.50;4992051;28;20073;-48
2021/12/26 04:15:31;;;;;;;7.05;3.13;;;;;;;-1.32;61.43;100684.50;5009518;28;20049;-48
2021/12/26 04:18:00;;;;;;;3.95;2.70;;;;;;;-1.22;61.35;100688.69;5000029;28;20042;-48
2021/12/26 04:20:29;;;;;;;4.28;2.72;;;;;;;-1.19;61.25;100682.94;4992155;28;20046;-48
2021/12/26 04:22:58;;;;;;;4.35;2.78;;;;;;;-1.33;61.23;100671.31;4991859;28;20053;-47
2021/12/26 04:25:27;;;;;;;6.63;3.22;;;;;;;-1.43;62.23;100676.19;4975711;28;20055;-47
2021/12/26 04:27:55;;;;;;;6.80;2.95;;;;;;;-1.42;61.67;100675.16;4992951;28;20050;-48
2021/12/26 04:30:24;;;;;;;6.00;2.92;;;;;;;-1.44;62.03;100680.69;4991680;28;20050;-48
2021/12/26 04:32:52;;;;;;;5.28;3.05;;;;;;;-1.48;61.68;100682.09;4991906;28;20053;-49
2021/12/26 04:35:20;;;;;;;5.80;3.00;;;;;;;-1.45;62.85;100675.53;4991968;28;20074;-49
2021/12/26 04:37:48;;;;;;;5.20;2.83;;;;;;;-1.34;62.85;100677.69;5004904;28;20041;-48
2021/12/26 04:40:17;;;;;;;6.50;3.45;;;;;;;-1.32;61.98;100673.81;5011403;28;20466;-48
2021/12/26 04:43:03;;;;;;;5.50;2.90;;;;;;;-1.26;61.91;100668.72;5012426;28;20042;-47
2021/12/26 04:45:37;;;;;;;7.10;3.40;;;;;;;-1.24;61.64;100669.34;5008749;28;20050;-48
2021/12/26 04:48:39;;;;;;;6.82;3.00;;;;;;;-1.24;61.74;100669.34;4992758;28;20039;-49
2021/12/26 04:51:09;;;;;;;5.55;3.17;;;;;;;-1.28;62.00;100671.56;5007999;28;20051;-49
2021/12/26 04:53:37;;;;;;;5.15;2.92;;;;;;;-1.41;61.87;100663.44;4991551;28;20528;-48
2021/12/26 04:56:06;;;;;;;5.78;3.45;;;;;;;-1.42;62.74;100673.31;5008111;28;20039;-49
2021/12/26 04:58:34;;;;;;;4.85;2.72;;;;;;;-1.39;62.59;100669.44;5011380;28;20050;-48
2021/12/26 05:01:01;;;;;;;4.50;3.03;;;;;;;-1.35;62.51;100671.53;4996257;28;20041;-51
2021/12/26 05:03:30;;;;;;;5.35;3.10;;;;;;;-1.29;62.35;100668.06;4991778;28;20054;-51
2021/12/26 05:05:57;;;;;;;6.05;3.33;;;;;;;-1.33;61.96;100666.78;4999830;28;20049;-48
2021/12/26 05:08:25;;;;;;;6.38;3.33;;;;;;;-1.35;61.98;100663.50;5015521;28;20069;-50
2021/12/26 05:10:52;;;;;;;5.22;3.00;;;;;;;-1.46;62.46;100669.38;5014783;28;20053;-51
2021/12/26 05:13:20;;;;;;;4.85;2.97;;;;;;;-1.44;63.09;100656.66;5014751;28;20056;-50
2021/12/26 05:15:48;;;;;;;5.30;3.05;;;;;;;-1.36;63.28;100661.84;5014429;28;20038;-48
2021/12/26 05:18:16;;;;;;;5.53;2.90;;;;;;;-1.37;62.59;100656.69;5014671;28;20118;-46
2021/12/26 05:20:46;;;;;;;5.72;3.30;;;;;;;-1.44;62.46;100656.66;5015797;28;20439;-48
2021/12/26 05:23:14;;;;;;;4.68;3.00;;;;;;;-1.45;62.64;100648.81;5015812;28;20052;-48
2021/12/26 05:25:42;;;;;;;6.20;3.33;;;;;;;-1.42;62.46;100651.09;5007642;28;20063;-45
2021/12/26 05:28:10;;;;;;;5.47;2.83;;;;;;;-1.46;62.81;100658.69;5011232;28;20097;-48
2021/12/26 05:30:38;;;;;;;5.57;3.10;;;;;;;-1.51;63.32;100647.75;4995866;28;20497;-49
2021/12/26 05:33:18;;;;;;;5.20;3.10;;;;;;;-1.48;62.80;100652.72;4994841;28;20053;-49
2021/12/26 05:35:49;;;;;;;8.10;3.30;;;;;;;-1.42;62.95;100646.59;5011849;28;20042;-48
2021/12/26 05:38:17;;;;;;;5.25;2.83;;;;;;;-1.41;63.54;100648.25;5011025;28;20042;-49
2021/12/26 05:40:47;;;;;;;5.88;3.50;;;;;;;-1.35;62.51;100646.63;4994537;28;20046;-47
2021/12/26 05:43:16;;;;;;;5.05;2.92;;;;;;;-1.40;62.41;100641.88;4994537;28;20515;-48
2021/12/26 05:45:43;;;;;;;6.63;3.38;;;;;;;-1.39;63.00;100640.03;5012136;28;20097;-48
2021/12/26 05:48:18;;;;;;;5.35;3.20;;;;;;;-1.35;63.10;100644.81;5010683;28;20350;-49
2021/12/26 05:50:48;;;;;;;5.40;3.17;;;;;;;-1.26;62.21;100641.97;5025799;28;20038;-49
2021/12/26 05:53:35;;;;;;;5.03;2.97;;;;;;;-1.26;62.50;100644.66;5014699;28;20404;-46
2021/12/26 05:56:04;;;;;;;6.13;3.30;;;;;;;-1.43;62.05;100631.56;5013281;28;20056;-48
2021/12/26 05:58:35;;;;;;;5.85;3.30;;;;;;;-1.44;62.45;100632.59;5014059;28;20191;-47
2021/12/26 06:01:04;;;;;;;5.80;3.45;;;;;;;-1.44;62.59;100626.41;5010415;28;20053;-50
2021/12/26 06:03:39;;;;;;;6.35;3.05;;;;;;;-1.54;63.20;100624.06;4994373;28;20057;-47
2021/12/26 06:06:07;;;;;;;5.45;3.13;;;;;;;-1.60;63.11;100632.88;4996482;28;20047;-45
2021/12/26 06:08:40;;;;;;;9.94;3.56;;;;;;;-1.62;63.32;100629.56;4304509;28;10021623;-52
2021/12/26 06:11:08;;;;;;;6.53;3.35;;;;;;;-1.64;63.10;100623.59;4993409;28;20046;-50
2021/12/26 06:13:35;;;;;;;5.05;3.00;;;;;;;-1.69;63.55;100632.19;5008571;28;20053;-48
2021/12/26 06:16:04;;;;;;;4.68;3.10;;;;;;;-1.67;63.40;100640.81;4997765;28;20038;-48
2021/12/26 06:18:32;;;;;;;4.93;3.10;;;;;;;-1.74;63.61;100635.41;4992055;28;20302;-43
2021/12/26 06:21:18;;;;;;;;;;;;;;;-1.84;64.58;100632.25;4994572;28;20042;-45
2021/12/26 06:23:50;;;;;;;5.93;3.20;;;;;;;-1.82;64.65;100635.56;5012744;28;19929;-49
2021/12/26 06:26:37;;;;;;;5.70;3.10;;;;;;;-1.79;64.30;100640.50;5005409;28;20042;-48
2021/12/26 06:29:18;;;;;;;6.03;3.20;;;;;;;-1.69;63.71;100634.03;5007998;28;20038;-48
2021/12/26 06:32:05;;;;;;;5.03;3.25;;;;;;;-1.80;64.13;100630.88;4993051;28;20121;-51
2021/12/26 06:35:02;;;;;;;6.88;3.55;;;;;;;-1.69;64.60;100626.00;5016386;28;20207;-49
2021/12/26 06:37:58;;;;;;;6.65;3.13;;;;;;;-1.60;64.38;100628.34;5029356;28;20431;-51
2021/12/26 06:40:44;;;;;;;5.97;3.08;;;;;;;-1.46;64.65;100620.47;5029359;28;20041;-48
2021/12/26 06:43:31;;;;;;;5.22;3.00;;;;;;;-1.43;63.83;100623.56;5029561;28;20045;-49
2021/12/26 06:46:35;;;;;;;4.53;2.90;;;;;;;-1.54;64.34;100624.06;5029436;28;20081;-49
2021/12/26 06:49:17;;;;;;;5.97;3.20;;;;;;;-1.54;64.03;100622.25;5029209;28;20057;-48
2021/12/26 06:51:46;;;;;;;5.65;3.28;;;;;;;-1.63;64.26;100619.91;5029395;28;20046;-44
2021/12/26 06:54:13;;;;;;;4.90;2.78;;;;;;;-1.72;64.88;100620.03;5029400;28;20045;-46
2021/12/26 06:56:42;;;;;;;7.30;3.17;;;;;;;-1.77;64.86;100619.78;5023881;28;20091;-45
2021/12/26 06:59:09;;;;;;;5.13;2.97;;;;;;;-1.81;65.55;100620.34;4997269;28;20160;-48
2021/12/26 07:01:37;;;;;;;5.80;2.90;;;;;;;-1.81;65.53;100621.19;4996640;28;20041;-47
2021/12/26 07:04:08;;;;;;;5.85;2.97;;;;;;;-1.78;65.92;100620.81;5010062;28;20041;-49
2021/12/26 07:06:37;;;;;;;5.90;3.28;;;;;;;-1.73;66.00;100623.72;5008595;28;20583;-48
2021/12/26 07:09:10;;;;;;;6.07;3.53;;;;;;;-1.72;65.56;100629.91;5028633;28;20471;-45
2021/12/26 07:11:38;;;;;;;7.63;2.90;;;;;;;-1.77;66.56;100617.13;4999321;28;20523;-49
2021/12/26 07:14:10;;;;;;;7.57;2.90;;;;;;;-1.89;66.73;100621.31;4991045;28;20069;-48
2021/12/26 07:16:38;;;;;;;7.43;3.33;;;;;;;-1.89;66.58;100610.66;4990956;28;20580;-49
2021/12/26 07:19:07;;;;;;;4.80;2.65;;;;;;;-1.76;67.35;100618.75;5013772;28;20038;-47
2021/12/26 07:21:40;;;;;;;4.72;2.88;;;;;;;-1.65;67.20;100617.44;5007015;28;20062;-48
2021/12/26 07:24:11;;;;;;;7.07;3.05;;;;;;;-1.61;66.82;100617.84;4990433;28;20054;-48
2021/12/26 07:26:39;;;;;;;5.55;3.28;;;;;;;-1.60;66.88;100617.66;4995374;28;20046;-47
2021/12/26 07:29:24;;;;;;;4.82;2.70;;;;;;;-1.63;66.73;100625.25;5002181;28;20101;-49
2021/12/26 07:31:52;;;;;;;5.57;3.47;;;;;;;-1.66;67.03;100623.81;5006911;28;20050;-49
2021/12/26 07:34:20;;;;;;;5.55;3.10;;;;;;;-1.72;66.72;100625.38;5006906;28;20053;-48
2021/12/26 07:36:48;;;;;;;6.55;3.00;;;;;;;-1.74;66.93;100622.06;4990128;28;20069;-44
2021/12/26 07:39:21;;;;;;;6.70;2.90;;;;;;;-1.77;67.69;100616.28;4998144;28;20122;-48
2021/12/26 07:41:49;;;;;;;7.65;3.60;;;;;;;-1.74;67.64;100622.06;5005897;28;20145;-49
2021/12/26 07:44:35;;;;;;;5.35;3.28;;;;;;;-1.63;67.68;100611.91;4991895;28;20194;-47
2021/12/26 07:47:21;;;;;;;5.97;3.03;;;;;;;-1.62;66.79;100614.38;4991659;28;20042;-48
2021/12/26 07:49:52;;;;;;;16.38;3.53;;;;;;;-1.63;66.92;100606.56;5021553;28;20046;-49
2021/12/26 07:52:41;;;;;;;;;;;;;;;-1.61;67.13;100615.19;5001419;28;20041;-48
2021/12/26 07:55:28;;;;;;;5.88;3.08;;;;;;;-1.64;67.38;100623.59;4990903;28;19925;-50
2021/12/26 07:58:16;;;;;;;5.63;3.40;;;;;;;-1.63;67.66;100617.25;4990978;28;20048;-49
2021/12/26 08:01:19;;;;;;;10.63;3.85;;;;;;;-1.75;67.60;100619.59;4991384;28;20432;-50
2021/12/26 08:04:02;;;;;;;5.82;3.53;;;;;;;-1.73;67.97;100617.56;4990218;28;20042;-50
2021/12/26 08:06:47;;;;;;;6.07;3.38;;;;;;;-1.69;67.78;100615.31;4990052;28;20417;-48
2021/12/26 08:09:15;;;;;;;6.57;3.42;;;;;;;-1.68;68.19;100614.28;4998153;28;20045;-48
2021/12/26 08:11:43;;;;;;;5.20;2.78;;;;;;;-1.63;67.90;100614.56;4990065;28;20071;-47
2021/12/26 08:14:11;;;;;;;5.57;2.90;;;;;;;-1.59;68.25;100618.50;4991212;28;20528;-49
2021/12/26 08:16:39;;;;;;;9.85;3.40;;;;;;;-1.53;68.48;100620.41;4997052;28;20034;-49
2021/12/26 08:19:07;;;;;;;7.22;3.40;;;;;;;-1.52;67.62;100616.69;5009470;28;20089;-51
2021/12/26 08:21:35;;;;;;;5.78;3.20;;;;;;;-1.56;67.65;100612.78;5010797;28;20056;-47
2021/12/26 08:24:03;;;;;;;5.28;3.28;;;;;;;-1.56;68.79;100618.94;5009618;28;20056;-51
2021/12/26 08:26:35;;;;;;;5.88;3.13;;;;;;;-1.48;67.79;100620.66;5010028;28;20042;-48
2021/12/26 08:29:03;;;;;;;7.30;3.67;;;;;;;-1.48;67.78;100625.97;5009795;28;20050;-48
2021/12/26 08:31:31;;;;;;;6.45;3.45;;;;;;;-1.48;67.89;100631.34;4995040;28;20061;-48
2021/12/26 08:33:59;;;;;;;6.45;3.40;;;;;;;-1.53;68.58;100629.22;5010545;28;20556;-48
2021/12/26 08:36:26;;;;;;;6.78;3.38;;;;;;;-1.50;68.47;100630.69;4996614;28;20062;-45
2021/12/26 08:38:54;;;;;;;5.85;3.50;;;;;;;-1.46;69.16;100631.16;4991123;28;20045;-47
2021/12/26 08:41:23;;;;;;;4.80;3.25;;;;;;;-1.48;68.34;100630.50;5006827;28;20385;-48
2021/12/26 08:43:53;;;;;;;5.50;3.38;;;;;;;-1.52;68.78;100633.53;4995637;28;20046;-48
2021/12/26 08:46:22;;;;;;;6.10;3.33;;;;;;;-1.52;69.22;100636.22;4994718;28;20038;-48
2021/12/26 08:48:50;;;;;;;5.95;3.45;;;;;;;-1.52;69.62;100638.88;4994760;28;20097;-51
2021/12/26 08:51:17;;;;;;;7.93;4.00;;;;;;;-1.50;69.06;100638.72;4995961;28;20046;-49
2021/12/26 08:53:45;;;;;;;6.75;3.78;;;;;;;-1.52;69.27;100636.22;4994747;28;20038;-49
2021/12/26 08:56:13;;;;;;;8.10;3.72;;;;;;;-1.50;68.95;100642.19;4995100;28;20053;-47
2021/12/26 08:58:41;;;;;;;6.80;3.60;;;;;;;-1.46;69.87;100634.63;4994372;28;20042;-49
2021/12/26 09:01:08;;;;;;;10.07;3.40;;;;;;;-1.42;68.74;100638.59;4995570;28;20045;-52
2021/12/26 09:03:37;;;;;;;6.25;3.42;;;;;;;-1.41;68.92;100642.91;4998125;28;20057;-50
2021/12/26 09:06:05;;;;;;;6.30;3.45;;;;;;;-1.42;69.14;100641.25;5006672;28;20648;-49
2021/12/26 09:08:33;;;;;;;7.50;3.53;;;;;;;-1.38;69.67;100647.84;5008908;28;20144;-48
2021/12/26 09:11:01;;;;;;;7.63;3.35;;;;;;;-1.39;69.74;100654.22;4994041;28;20076;-49
2021/12/26 09:13:29;;;;;;;6.35;3.60;;;;;;;-1.36;69.26;100653.00;5010641;28;20057;-48
2021/12/26 09:15:57;;;;;;;6.70;3.42;;;;;;;-1.34;69.32;100642.94;5013929;28;20046;-49
2021/12/26 09:18:25;;;;;;;5.90;3.55;;;;;;;-1.34;69.59;100638.44;5013832;28;20052;-49
2021/12/26 09:20:52;;;;;;;5.85;3.75;;;;;;;-1.27;69.99;100643.81;5011340;28;20038;-46
2021/12/26 09:23:20;;;;;;;9.50;3.60;;;;;;;-1.22;69.70;100640.56;4995793;28;20188;-49
2021/12/26 09:25:47;;;;;;;6.57;3.80;;;;;;;-1.20;69.40;100649.19;4995435;28;20077;-50
2021/12/26 09:28:15;;;;;;;9.18;3.28;;;;;;;-1.24;69.66;100639.94;4993587;28;20421;-49
2021/12/26 09:30:43;;;;;;;6.57;3.63;;;;;;;-1.21;69.11;100639.53;4998333;28;20046;-49
2021/12/26 09:33:10;;;;;;;6.05;3.45;;;;;;;-1.19;69.97;100634.84;5006907;28;20038;-49
2021/12/26 09:35:38;;;;;;;5.63;3.40;;;;;;;-1.20;70.11;100626.00;4997201;28;20050;-48
2021/12/26 09:38:06;;;;;;;6.38;3.55;;;;;;;-1.14;70.20;100624.38;5010106;28;20053;-49
2021/12/26 09:40:33;;;;;;;9.55;3.78;;;;;;;-1.14;70.31;100629.72;5010750;28;20415;-48
2021/12/26 09:43:01;;;;;;;6.53;4.05;;;;;;;-1.13;70.31;100631.34;4993791;28;20035;-50
2021/12/26 09:45:28;;;;;;;6.10;3.50;;;;;;;-1.21;70.51;100627.00;4999248;28;20054;-50
2021/12/26 09:47:56;;;;;;;8.73;3.90;;;;;;;-1.17;70.18;100622.91;5013433;28;20092;-49
2021/12/26 09:50:24;;;;;;;10.70;4.03;;;;;;;-1.11;70.36;100630.16;5013249;28;20080;-48
2021/12/26 09:52:53;;;;;;;8.38;3.78;;;;;;;-1.04;70.80;100622.16;4996799;28;20054;-49
2021/12/26 09:55:23;;;;;;;8.20;3.92;;;;;;;-1.00;69.82;100611.91;5009244;28;20145;-48
2021/12/26 09:57:50;;;;;;;5.35;3.33;;;;;;;-0.99;70.71;100611.69;5016060;28;20046;-53
2021/12/26 10:00:18;;;;;;;7.55;3.97;;;;;;;-0.92;70.23;100615.25;5005294;28;20042;-49
2021/12/26 10:02:46;;;;;;;7.88;3.78;;;;;;;-0.89;70.21;100614.88;5004973;28;20519;-49
2021/12/26 10:05:13;;;;;;;7.88;3.85;;;;;;;-0.90;70.83;100613.19;4993384;28;20089;-49
2021/12/26 10:07:41;;;;;;;6.32;3.50;;;;;;;-0.96;71.20;100605.97;5012307;28;20058;-50
2021/12/26 10:10:09;;;;;;;7.55;4.05;;;;;;;-0.95;71.59;100610.28;4998141;28;20061;-46
2021/12/26 10:12:40;;;;;;;6.45;3.67;;;;;;;-0.88;71.07;100608.47;5005821;28;20050;-53
2021/12/26 10:15:09;;;;;;;7.65;3.80;;;;;;;-0.81;71.35;100608.53;4993352;28;20038;-50
2021/12/26 10:17:36;;;;;;;7.25;4.18;;;;;;;-0.78;70.96;100597.41;4992596;28;20046;-52
2021/12/26 10:20:09;;;;;;;7.78;4.30;;;;;;;-0.78;70.99;100600.09;4993317;28;20049;-47
2021/12/26 10:22:37;;;;;;;8.25;4.07;;;;;;;-0.74;71.31;100592.50;4999700;28;20047;-48
2021/12/26 10:25:10;;;;;;;9.23;4.50;;;;;;;-0.86;71.76;100579.69;5010084;28;20041;-49
2021/12/26 10:27:41;;;;;;;7.57;3.90;;;;;;;-0.92;72.28;100582.31;5007031;28;20040;-53
2021/12/26 10:30:15;;;;;;;8.02;4.70;;;;;;;-0.87;72.48;100582.56;4997173;28;20057;-52
2021/12/26 10:32:42;;;;;;;9.90;4.45;;;;;;;-0.86;72.43;100579.69;5001851;28;20134;-49
2021/12/26 10:35:15;;;;;;;8.93;4.53;;;;;;;-0.81;72.87;100567.59;5000774;28;20050;-49
2021/12/26 10:37:50;;;;;;;7.43;4.45;;;;;;;-0.68;72.62;100572.97;4991746;28;20154;-49
2021/12/26 10:40:25;;;;;;;9.88;4.45;;;;;;;-0.66;73.51;100565.56;4991546;28;20051;-47
2021/12/26 10:43:01;;;;;;;6.72;4.40;;;;;;;-0.62;73.41;100561.47;4991277;28;20046;-52
2021/12/26 10:45:30;;;;;;;7.03;4.10;;;;;;;-0.59;72.63;100563.75;4999961;28;20448;-50
2021/12/26 10:48:01;;;;;;;8.10;4.25;;;;;;;-0.49;72.80;100561.50;5003668;28;20523;-52
2021/12/26 10:50:30;;;;;;;8.18;4.60;;;;;;;-0.51;72.75;100555.53;5014132;28;20046;-52
2021/12/26 10:53:01;;;;;;;9.32;5.07;;;;;;;-0.54;72.40;100547.91;5014013;28;20084;-49
2021/12/26 10:55:32;;;;;;;7.70;4.43;;;;;;;-0.55;73.93;100540.09;5011857;28;20493;-50
2021/12/26 10:58:03;;;;;;;10.63;4.20;;;;;;;-0.57;73.89;100542.97;5011130;28;20045;-49
2021/12/26 11:00:37;;;;;;;7.68;4.30;;;;;;;-0.59;73.72;100550.38;5013857;28;20046;-53
2021/12/26 11:03:07;;;;;;;13.95;5.28;;;;;;;-0.60;74.59;100551.41;5013885;28;20562;-50
2021/12/26 11:05:43;;;;;;;8.00;4.88;;;;;;;-0.51;74.49;100555.53;5012758;28;20085;-52
2021/12/26 11:08:15;;;;;;;7.43;4.32;;;;;;;-0.53;74.10;100551.41;5017692;28;20057;-51
2021/12/26 11:10:52;;;;;;;9.63;4.78;;;;;;;-0.56;74.69;100555.31;5017007;28;20038;-50
2021/12/26 11:13:23;;;;;;;8.80;4.60;;;;;;;-0.55;74.42;100548.13;5018246;28;20367;-50
2021/12/26 11:15:55;;;;;;;8.85;5.10;;;;;;;-0.52;74.67;100539.69;5015894;28;20042;-52
2021/12/26 11:18:24;;;;;;;8.75;5.25;;;;;;;-0.50;74.58;100537.63;5015760;28;20041;-51
2021/12/26 11:20:55;;;;;;;9.32;4.72;;;;;;;-0.49;75.03;100532.06;5015221;28;20050;-50
2021/12/26 11:23:26;;;;;;;8.27;4.57;;;;;;;-0.44;75.03;100542.97;5012975;28;20034;-50
2021/12/26 11:26:13;;;;;;;9.45;5.50;;;;;;;-0.43;75.40;100541.97;5005755;28;20116;-48
2021/12/26 11:28:44;;;;;;;8.73;5.35;;;;;;;-0.43;75.84;100536.63;5012846;28;20141;-50
2021/12/26 11:31:17;;;;;;;10.98;5.43;;;;;;;-0.39;75.40;100534.34;5005321;28;20053;-51
2021/12/26 11:33:49;;;;;;;9.40;5.20;;;;;;;-0.39;75.82;100537.03;4993410;28;20053;-48
2021/12/26 11:36:17;;;;;;;10.65;4.97;;;;;;;-0.40;76.52;100529.22;4994516;28;20058;-50
2021/12/26 11:38:53;;;;;;;10.40;5.68;;;;;;;-0.38;76.37;100533.34;4977442;28;20154;-47
2021/12/26 11:42:01;;;;;;;19.48;11.63;;;;;;;-0.32;77.07;100529.00;4992777;28;20053;-49
2021/12/26 11:45:08;;;;;;;33.80;17.83;;;;;;;-0.25;76.15;100524.50;4992072;28;20504;-45
2021/12/26 11:48:48;;;;;;;10.50;5.90;;;;;;;-0.21;76.37;100525.75;5030620;28;20038;-48